Time;durP1;ratioP1;P1;durP2;ratioP2;P2;SDS_P1;SDS_P2;PMS_P1;PMS_P2;Temp;Humidity;BMP_temperature;BMP_pressure;BME280_temperature;BME280_humidity;BME280_pressure;Samples;Min_cycle;Max_cycle;Signal;HPM_P1;HPM_P2
2021/10/26 00:01:21;;;;;;;14.30;12.80;;;11.00;99.90;;;;;;5066321;28;20502;-66
2021/10/26 00:03:50;;;;;;;14.50;13.10;;;10.90;99.90;;;;;;5068761;28;20479;-66
2021/10/26 00:06:17;;;;;;;14.27;12.87;;;11.00;99.90;;;;;;5071847;28;20892;-66
2021/10/26 00:08:44;;;;;;;15.73;13.97;;;11.00;99.90;;;;;;5076274;28;20789;-67
2021/10/26 00:11:19;;;;;;;15.53;13.90;;;11.00;99.90;;;;;;5076723;28;20436;-66
2021/10/26 00:13:46;;;;;;;17.33;13.30;;;11.00;99.90;;;;;;5076279;28;20457;-66
2021/10/26 00:16:18;;;;;;;16.33;14.77;;;11.00;99.90;;;;;;5072171;28;20461;-65
2021/10/26 00:18:46;;;;;;;14.47;13.00;;;11.00;99.90;;;;;;5076342;28;20437;-66
2021/10/26 00:21:14;;;;;;;14.33;11.50;;;11.00;99.90;;;;;;5076721;28;20516;-65
2021/10/26 00:23:44;;;;;;;13.50;12.10;;;10.90;99.90;;;;;;5076567;28;20551;-65
2021/10/26 00:26:11;;;;;;;14.00;11.67;;;11.00;99.90;;;;;;5077085;28;20564;-65
2021/10/26 00:28:38;;;;;;;13.33;11.93;;;11.00;99.90;;;;;;5075991;28;20489;-65
2021/10/26 00:31:06;;;;;;;11.93;10.73;;;11.00;99.90;;;;;;5076793;28;20894;-65
2021/10/26 00:33:36;;;;;;;13.80;12.40;;;10.90;99.90;;;;;;5076486;28;20955;-65
2021/10/26 00:36:06;;;;;;;12.93;10.20;;;10.90;99.90;;;;;;5076148;28;20465;-66
2021/10/26 00:38:34;;;;;;;13.77;11.67;;;11.00;99.90;;;;;;5076189;28;20523;-66
2021/10/26 00:41:01;;;;;;;13.60;11.30;;;11.00;99.90;;;;;;5076409;28;20469;-66
2021/10/26 00:43:29;;;;;;;13.10;11.80;;;11.00;99.90;;;;;;5076433;28;20489;-66
2021/10/26 00:45:56;;;;;;;11.90;10.60;;;11.00;99.90;;;;;;5076620;28;20439;-65
2021/10/26 00:48:23;;;;;;;15.13;13.57;;;11.00;99.90;;;;;;5076102;28;20765;-65
2021/10/26 00:50:50;;;;;;;13.67;12.20;;;11.00;99.90;;;;;;5078554;28;20469;-65
2021/10/26 00:53:19;;;;;;;14.33;12.57;;;11.00;99.90;;;;;;5080142;28;20457;-65
2021/10/26 00:55:49;;;;;;;14.23;12.83;;;11.00;99.90;;;;;;5080644;28;20764;-65
2021/10/26 00:58:16;;;;;;;15.90;13.83;;;11.00;99.90;;;;;;5080197;28;20448;-65
2021/10/26 01:00:45;;;;;;;14.63;13.13;;;11.00;99.90;;;;;;5074822;28;20526;-65
2021/10/26 01:03:12;;;;;;;15.33;13.67;;;11.00;99.90;;;;;;5079252;28;20947;-65
2021/10/26 01:05:39;;;;;;;16.77;14.13;;;11.00;99.90;;;;;;5080062;28;20519;-65
2021/10/26 01:08:07;;;;;;;19.03;14.77;;;11.00;99.90;;;;;;5080201;28;20748;-65
2021/10/26 01:10:35;;;;;;;17.33;15.50;;;11.00;99.90;;;;;;5079896;28;20446;-65
2021/10/26 01:13:05;;;;;;;16.67;14.87;;;11.00;99.90;;;;;;5079569;28;20520;-65
2021/10/26 01:15:33;;;;;;;17.47;15.37;;;10.90;99.90;;;;;;5064309;28;20736;-65
2021/10/26 01:18:00;;;;;;;16.20;14.60;;;10.90;99.90;;;;;;5079930;28;20447;-65
2021/10/26 01:20:31;;;;;;;17.37;15.67;;;10.90;99.90;;;;;;5079603;28;20893;-65
2021/10/26 01:22:58;;;;;;;22.73;17.13;;;10.90;99.90;;;;;;5079465;28;20600;-65
2021/10/26 01:25:25;;;;;;;19.17;17.20;;;10.90;99.90;;;;;;5079562;28;20839;-65
2021/10/26 01:27:57;;;;;;;21.43;17.33;;;10.90;99.90;;;;;;5079744;28;20461;-65
2021/10/26 01:30:27;;;;;;;18.97;17.20;;;10.90;99.90;;;;;;5079843;28;20465;-65
2021/10/26 01:32:55;;;;;;;21.80;17.00;;;10.90;99.90;;;;;;5079231;28;20468;-66
2021/10/26 01:35:22;;;;;;;18.33;16.57;;;10.90;99.90;;;;;;5079310;28;20460;-65
2021/10/26 01:37:50;;;;;;;20.20;16.70;;;11.00;99.90;;;;;;5079080;28;20908;-65
2021/10/26 01:40:18;;;;;;;17.40;15.60;;;10.90;99.90;;;;;;5079345;28;20472;-65
2021/10/26 01:42:45;;;;;;;19.40;17.40;;;10.90;99.90;;;;;;5079072;28;20745;-66
2021/10/26 01:45:12;;;;;;;23.87;16.70;;;10.90;99.90;;;;;;5079057;28;20468;-65
2021/10/26 01:47:40;;;;;;;15.53;13.47;;;10.90;99.90;;;;;;5078804;28;20465;-66
2021/10/26 01:50:12;;;;;;;19.80;15.63;;;10.90;99.90;;;;;;5079311;28;20738;-66
2021/10/26 01:52:40;;;;;;;15.23;13.70;;;10.90;99.90;;;;;;5078948;28;20552;-65
2021/10/26 01:55:10;;;;;;;16.27;14.53;;;10.90;99.90;;;;;;5078710;28;20515;-65
2021/10/26 01:57:39;;;;;;;17.03;15.33;;;11.00;99.90;;;;;;5078908;28;20461;-65
2021/10/26 02:00:14;;;;;;;15.43;13.67;;;10.90;99.90;;;;;;5078717;28;20511;-66
2021/10/26 02:02:41;;;;;;;16.33;14.60;;;10.90;99.90;;;;;;5064673;28;20463;-65
2021/10/26 02:05:09;;;;;;;16.20;14.50;;;11.00;99.90;;;;;;5078573;28;20442;-65
2021/10/26 02:07:36;;;;;;;16.27;13.60;;;11.00;99.90;;;;;;5079033;28;20945;-65
2021/10/26 02:10:04;;;;;;;17.23;13.50;;;11.00;99.90;;;;;;5078735;28;20457;-65
2021/10/26 02:12:33;;;;;;;14.90;12.83;;;11.00;99.90;;;;;;5079228;28;20520;-65
2021/10/26 02:15:00;;;;;;;18.03;14.90;;;11.00;99.90;;;;;;5073678;28;20461;-65
2021/10/26 02:17:27;;;;;;;16.63;14.87;;;11.00;99.90;;;;;;5078697;28;20784;-65
2021/10/26 02:19:54;;;;;;;16.23;14.60;;;11.00;99.90;;;;;;5078372;28;20435;-65
2021/10/26 02:22:21;;;;;;;16.70;14.83;;;11.00;99.90;;;;;;5078916;28;20475;-66
2021/10/26 02:24:49;;;;;;;17.60;15.30;;;11.00;99.90;;;;;;5078238;28;20736;-65
2021/10/26 02:27:16;;;;;;;17.77;15.60;;;11.00;99.90;;;;;;5078385;28;20460;-65
2021/10/26 02:29:45;;;;;;;19.00;15.80;;;11.00;99.90;;;;;;5078267;28;20763;-65
2021/10/26 02:32:12;;;;;;;18.20;15.30;;;11.00;99.90;;;;;;5078436;28;20493;-65
2021/10/26 02:34:39;;;;;;;17.40;15.67;;;11.00;99.90;;;;;;5078022;28;20431;-65
2021/10/26 02:37:08;;;;;;;22.10;16.17;;;11.00;99.90;;;;;;5078352;28;20457;-65
2021/10/26 02:39:35;;;;;;;17.27;15.20;;;11.10;99.90;;;;;;5077989;28;20866;-64
2021/10/26 02:42:02;;;;;;;19.20;14.97;;;11.10;99.90;;;;;;5078153;28;20461;-64
2021/10/26 02:44:30;;;;;;;16.23;14.50;;;11.10;99.90;;;;;;5078138;28;20493;-64
2021/10/26 02:46:59;;;;;;;19.50;16.67;;;11.10;99.90;;;;;;5078037;28;20472;-64
2021/10/26 02:49:26;;;;;;;21.30;15.70;;;11.10;99.90;;;;;;5078042;28;20465;-64
2021/10/26 02:51:53;;;;;;;17.13;14.37;;;11.10;99.90;;;;;;5078022;28;20465;-64
2021/10/26 02:54:20;;;;;;;16.80;15.07;;;11.10;99.90;;;;;;5078254;28;20457;-64
2021/10/26 02:56:47;;;;;;;18.17;15.80;;;11.10;99.90;;;;;;5077592;28;20465;-64
2021/10/26 02:59:14;;;;;;;17.13;14.80;;;11.10;99.90;;;;;;5077640;28;20515;-64
2021/10/26 03:01:42;;;;;;;18.07;15.13;;;11.10;99.90;;;;;;5074194;28;20488;-64
2021/10/26 03:04:10;;;;;;;18.87;16.80;;;11.10;99.90;;;;;;5077179;28;20614;-64
2021/10/26 03:06:39;;;;;;;18.40;16.27;;;11.10;99.90;;;;;;5077092;28;20461;-64
2021/10/26 03:09:06;;;;;;;20.37;16.60;;;11.10;99.90;;;;;;5077255;28;20441;-64
2021/10/26 03:11:33;;;;;;;19.97;16.63;;;11.10;99.90;;;;;;5077672;28;20444;-64
2021/10/26 03:14:00;;;;;;;20.13;15.17;;;11.10;99.90;;;;;;5074224;28;20536;-64
2021/10/26 03:16:27;;;;;;;17.53;15.70;;;11.10;99.90;;;;;;5068297;28;20523;-64
2021/10/26 03:18:54;;;;;;;23.43;16.80;;;11.10;99.90;;;;;;5077310;28;20461;-64
2021/10/26 03:21:23;;;;;;;17.87;15.13;;;11.10;99.90;;;;;;5077591;28;20461;-64
2021/10/26 03:23:50;;;;;;;17.90;16.10;;;11.10;99.90;;;;;;5077381;28;20543;-64
2021/10/26 03:26:17;;;;;;;16.90;15.10;;;11.10;99.90;;;;;;5077184;28;20468;-64
2021/10/26 03:28:44;;;;;;;18.40;15.67;;;11.10;99.90;;;;;;5076944;28;20440;-65
2021/10/26 03:31:14;;;;;;;19.30;16.23;;;11.10;99.90;;;;;;5077186;28;20467;-65
2021/10/26 03:33:41;;;;;;;18.73;15.63;;;11.10;99.90;;;;;;5077149;28;20436;-65
2021/10/26 03:36:08;;;;;;;22.70;16.67;;;11.10;99.90;;;;;;5077272;28;20524;-65
2021/10/26 03:38:37;;;;;;;18.93;16.13;;;11.10;99.90;;;;;;5076333;28;20531;-65
2021/10/26 03:41:04;;;;;;;27.90;18.23;;;11.10;99.90;;;;;;5077084;28;20515;-65
2021/10/26 03:43:31;;;;;;;20.47;16.83;;;11.10;99.90;;;;;;5076328;28;20485;-65
2021/10/26 03:45:59;;;;;;;23.13;15.50;;;11.10;99.90;;;;;;5077355;28;20465;-65
2021/10/26 03:48:27;;;;;;;22.67;17.97;;;11.00;99.90;;;;;;5077023;28;20484;-66
2021/10/26 03:50:54;;;;;;;23.23;17.50;;;11.10;99.90;;;;;;5076657;28;20472;-65
2021/10/26 03:53:21;;;;;;;23.60;19.20;;;11.10;99.90;;;;;;5076824;28;20457;-65
2021/10/26 03:55:50;;;;;;;23.20;18.33;;;11.10;99.90;;;;;;5077281;28;20504;-65
2021/10/26 03:58:17;;;;;;;22.77;18.03;;;11.10;99.90;;;;;;5076687;28;20877;-65
2021/10/26 04:00:45;;;;;;;21.93;18.70;;;11.00;99.90;;;;;;5071465;28;20444;-65
2021/10/26 04:03:13;;;;;;;20.83;17.43;;;11.00;99.90;;;;;;5069477;28;20573;-65
2021/10/26 04:05:47;;;;;;;24.63;18.93;;;11.00;99.90;;;;;;5077130;28;21300;-64
2021/10/26 04:08:23;;;;;;;20.40;18.30;;;11.10;99.90;;;;;;5077130;28;20608;-64
2021/10/26 04:10:54;;;;;;;21.87;18.70;;;11.10;99.90;;;;;;5076911;28;20922;-64
2021/10/26 04:13:22;;;;;;;27.23;20.07;;;11.10;99.90;;;;;;5076953;28;20461;-64
2021/10/26 04:15:50;;;;;;;25.40;20.27;;;11.10;99.90;;;;;;5075190;28;20528;-64
2021/10/26 04:18:18;;;;;;;22.57;20.17;;;11.10;99.90;;;;;;5076897;28;20440;-65
2021/10/26 04:20:45;;;;;;;38.17;20.17;;;11.10;99.90;;;;;;5076752;28;20440;-65
2021/10/26 04:23:12;;;;;;;24.77;18.40;;;11.10;99.90;;;;;;5076699;28;20466;-65
2021/10/26 04:25:39;;;;;;;27.93;20.90;;;11.10;99.90;;;;;;5080548;28;20466;-65
2021/10/26 04:28:08;;;;;;;28.10;20.37;;;11.10;99.90;;;;;;5080520;28;20560;-65
2021/10/26 04:30:36;;;;;;;21.63;19.33;;;11.10;99.90;;;;;;5080412;28;20535;-65
2021/10/26 04:33:06;;;;;;;27.13;18.83;;;11.00;99.90;;;;;;5080308;28;20464;-65
2021/10/26 04:35:34;;;;;;;22.27;19.47;;;11.00;99.90;;;;;;5080950;28;20495;-65
2021/10/26 04:38:01;;;;;;;23.13;19.40;;;11.10;99.90;;;;;;5080336;28;20461;-65
2021/10/26 04:40:28;;;;;;;24.60;19.33;;;11.10;99.90;;;;;;5080661;28;20548;-65
2021/10/26 04:43:04;;;;;;;26.30;19.37;;;11.10;99.90;;;;;;5079366;28;20465;-65
2021/10/26 04:45:46;;;;;;;24.23;20.40;;;11.10;99.90;;;;;;5068088;28;20521;-65
2021/10/26 04:48:16;;;;;;;22.67;20.30;;;11.10;99.90;;;;;;5059358;28;20816;-65
2021/10/26 04:50:43;;;;;;;21.40;19.00;;;11.00;99.90;;;;;;5067961;28;20446;-65
2021/10/26 04:53:11;;;;;;;21.27;18.97;;;11.00;99.90;;;;;;5068868;28;20453;-65
2021/10/26 04:55:38;;;;;;;24.50;19.77;;;11.10;99.90;;;;;;5069365;28;20906;-65
2021/10/26 04:58:07;;;;;;;23.37;18.33;;;11.10;99.90;;;;;;5067779;28;20454;-65
2021/10/26 05:00:39;;;;;;;28.10;19.23;;;11.10;99.90;;;;;;5070954;28;20459;-65
2021/10/26 05:03:06;;;;;;;24.27;19.00;;;11.10;99.90;;;;;;5068522;28;20482;-65
2021/10/26 05:05:33;;;;;;;22.13;19.77;;;11.10;99.90;;;;;;5068013;28;20515;-64
2021/10/26 05:08:05;;;;;;;26.27;18.70;;;11.10;99.90;;;;;;5069622;28;20450;-64
2021/10/26 05:10:46;;;;;;;24.90;18.47;;;11.10;99.90;;;;;;5069236;28;20875;-64
2021/10/26 05:13:13;;;;;;;20.97;18.70;;;11.00;99.90;;;;;;5069199;28;20516;-65
2021/10/26 05:15:48;;;;;;;27.47;19.10;;;11.10;99.90;;;;;;5066622;28;20881;-64
2021/10/26 05:18:17;;;;;;;26.00;19.07;;;11.10;99.90;;;;;;5068774;28;20473;-64
2021/10/26 05:20:48;;;;;;;22.80;18.90;;;11.10;99.90;;;;;;5067466;28;20453;-65
2021/10/26 05:23:18;;;;;;;20.27;17.13;;;11.10;99.90;;;;;;5067602;28;20461;-64
2021/10/26 05:25:52;;;;;;;21.90;17.03;;;11.10;99.90;;;;;;5070027;28;20552;-64
2021/10/26 05:28:19;;;;;;;21.80;16.73;;;11.10;99.90;;;;;;5068770;28;20462;-64
2021/10/26 05:30:48;;;;;;;20.03;16.50;;;11.10;99.90;;;;;;5068342;28;20461;-65
2021/10/26 05:33:20;;;;;;;26.63;16.90;;;11.00;99.90;;;;;;5068063;28;20769;-64
2021/10/26 05:35:48;;;;;;;20.40;15.77;;;11.10;99.90;;;;;;5067991;28;20451;-64
2021/10/26 05:38:15;;;;;;;20.70;16.80;;;11.10;99.90;;;;;;5067738;28;20462;-64
2021/10/26 05:40:43;;;;;;;20.60;16.30;;;11.10;99.90;;;;;;5072468;28;20884;-64
2021/10/26 05:43:13;;;;;;;18.57;15.67;;;11.10;99.90;;;;;;5074851;28;20468;-64
2021/10/26 05:45:46;;;;;;;18.60;13.63;;;11.10;99.90;;;;;;5069934;28;20496;-64
2021/10/26 05:48:18;;;;;;;22.20;14.87;;;11.00;99.90;;;;;;5073995;28;20442;-64
2021/10/26 05:50:46;;;;;;;16.67;14.77;;;11.00;99.90;;;;;;5079069;28;20595;-64
2021/10/26 05:53:13;;;;;;;26.40;15.00;;;11.00;99.90;;;;;;5079212;28;20758;-64
2021/10/26 05:55:43;;;;;;;19.63;14.97;;;11.00;99.90;;;;;;5079478;28;20440;-64
2021/10/26 05:58:12;;;;;;;18.00;13.80;;;11.00;99.90;;;;;;5063842;28;20478;-64
2021/10/26 06:00:44;;;;;;;21.43;14.60;;;11.00;99.90;;;;;;5066822;28;20536;-64
2021/10/26 06:03:13;;;;;;;19.47;13.57;;;11.00;99.90;;;;;;5062802;28;20847;-64
2021/10/26 06:05:42;;;;;;;14.80;12.43;;;11.00;99.90;;;;;;5072313;28;20489;-64
2021/10/26 06:08:09;;;;;;;19.40;14.93;;;11.00;99.90;;;;;;5078961;28;20668;-64
2021/10/26 06:13:25;;;;;;;15.20;13.60;;;11.00;99.90;;;;;;5077767;28;20903;-64
2021/10/26 06:15:54;;;;;;;18.37;14.20;;;11.00;99.90;;;;;;5060613;28;20457;-64
2021/10/26 06:18:21;;;;;;;20.40;16.13;;;11.00;99.90;;;;;;5063758;28;20433;-64
2021/10/26 06:20:50;;;;;;;18.87;14.37;;;11.10;99.90;;;;;;5076237;28;20962;-64
2021/10/26 06:23:20;;;;;;;20.33;14.73;;;11.10;99.90;;;;;;5077655;28;20443;-64
2021/10/26 06:25:47;;;;;;;22.30;14.47;;;11.10;99.90;;;;;;5077347;28;20570;-64
2021/10/26 06:28:14;;;;;;;27.53;14.50;;;11.10;99.90;;;;;;5076700;28;20985;-64
2021/10/26 06:30:41;;;;;;;17.20;12.77;;;11.10;99.90;;;;;;5077240;28;20473;-64
2021/10/26 06:33:08;;;;;;;16.80;13.80;;;11.10;99.90;;;;;;5077885;28;20891;-64
2021/10/26 06:35:41;;;;;;;19.47;13.63;;;11.10;99.90;;;;;;5077395;28;20440;-64
2021/10/26 06:38:10;;;;;;;17.33;12.77;;;11.10;99.90;;;;;;5078221;28;20440;-64
2021/10/26 06:40:38;;;;;;;22.47;13.50;;;11.10;99.90;;;;;;5077329;28;20927;-64
2021/10/26 06:43:05;;;;;;;20.40;13.20;;;11.10;99.90;;;;;;5078450;28;20469;-64
2021/10/26 06:45:32;;;;;;;15.90;13.80;;;11.10;99.90;;;;;;5078386;28;20784;-64
2021/10/26 06:47:59;;;;;;;19.07;12.77;;;11.20;99.90;;;;;;5077043;28;20469;-64
2021/10/26 06:50:26;;;;;;;14.40;12.13;;;11.10;99.90;;;;;;5078199;28;20545;-64
2021/10/26 06:52:56;;;;;;;16.20;13.90;;;11.10;99.90;;;;;;5077792;28;20458;-64
2021/10/26 06:55:38;;;;;;;19.03;13.17;;;11.10;99.90;;;;;;5077883;28;20808;-64
2021/10/26 06:58:05;;;;;;;15.37;12.73;;;11.10;99.90;;;;;;5077850;28;20627;-64
2021/10/26 07:00:33;;;;;;;18.67;12.40;;;11.10;99.90;;;;;;5074635;28;20464;-64
2021/10/26 07:03:06;;;;;;;16.07;12.30;;;11.10;99.90;;;;;;5070998;28;20497;-64
2021/10/26 07:05:39;;;;;;;22.17;14.43;;;11.10;99.90;;;;;;5077086;28;20503;-64
2021/10/26 07:08:11;;;;;;;23.23;13.80;;;11.20;99.90;;;;;;5064061;28;20770;-64
2021/10/26 07:10:40;;;;;;;20.53;14.50;;;11.10;99.90;;;;;;5077359;28;20484;-64
2021/10/26 07:13:10;;;;;;;21.50;14.30;;;11.10;99.90;;;;;;5077642;28;20461;-64
2021/10/26 07:15:40;;;;;;;16.20;13.60;;;11.10;99.90;;;;;;5074227;28;20470;-64
2021/10/26 07:18:09;;;;;;;19.87;12.70;;;11.20;99.90;;;;;;5076394;28;20461;-64
2021/10/26 07:20:36;;;;;;;16.10;12.80;;;11.20;99.90;;;;;;5076903;28;20485;-64
2021/10/26 07:23:06;;;;;;;19.37;13.73;;;11.20;99.90;;;;;;5077343;28;20461;-64
2021/10/26 07:25:33;;;;;;;17.10;11.70;;;11.20;99.90;;;;;;5077368;28;20493;-64
2021/10/26 07:28:02;;;;;;;16.43;13.03;;;11.20;99.90;;;;;;5077245;28;20466;-64
2021/10/26 07:30:35;;;;;;;16.80;12.97;;;11.20;99.90;;;;;;5077121;28;20457;-64
2021/10/26 07:33:07;;;;;;;16.30;13.70;;;11.30;99.90;;;;;;5077276;28;20475;-64
2021/10/26 07:35:40;;;;;;;21.50;13.90;;;11.30;99.90;;;;;;5077180;28;20462;-64
2021/10/26 07:38:08;;;;;;;15.50;11.80;;;11.20;99.90;;;;;;5077234;28;20560;-64
2021/10/26 07:40:40;;;;;;;15.70;12.47;;;11.20;99.90;;;;;;5077009;28;20539;-64
2021/10/26 07:43:15;;;;;;;15.83;12.03;;;11.20;99.90;;;;;;5076854;28;20490;-64
2021/10/26 07:45:45;;;;;;;16.10;12.60;;;11.30;99.90;;;;;;5076859;28;20478;-64
2021/10/26 07:48:12;;;;;;;13.17;11.63;;;11.30;99.90;;;;;;5076740;28;20466;-64
2021/10/26 07:50:47;;;;;;;14.83;11.40;;;11.30;99.90;;;;;;5076516;28;20461;-64
2021/10/26 07:53:18;;;;;;;13.07;11.63;;;11.30;99.90;;;;;;5076330;28;20431;-64
2021/10/26 07:55:52;;;;;;;14.83;11.73;;;11.30;99.90;;;;;;5076909;28;20552;-64
2021/10/26 07:58:20;;;;;;;15.33;11.23;;;11.40;99.90;;;;;;5076457;28;20500;-64
2021/10/26 08:00:48;;;;;;;14.77;10.30;;;11.50;99.90;;;;;;5071456;28;20462;-64
2021/10/26 08:03:15;;;;;;;16.30;11.33;;;11.50;99.90;;;;;;5075314;28;20570;-64
2021/10/26 08:05:42;;;;;;;15.30;12.03;;;11.50;99.90;;;;;;5076603;28;20587;-64
2021/10/26 08:08:10;;;;;;;17.03;11.60;;;11.50;99.90;;;;;;5076762;28;20524;-64
2021/10/26 08:10:47;;;;;;;15.10;11.40;;;11.50;99.90;;;;;;5076517;28;20884;-65
2021/10/26 08:13:16;;;;;;;13.33;11.67;;;11.50;99.90;;;;;;5076438;28;20563;-64
2021/10/26 08:15:49;;;;;;;17.07;11.57;;;11.50;99.90;;;;;;5059679;28;20466;-64
2021/10/26 08:18:19;;;;;;;16.23;11.77;;;11.60;99.90;;;;;;5076173;28;20556;-65
2021/10/26 08:20:54;;;;;;;12.20;10.27;;;11.60;99.90;;;;;;5076503;28;20461;-65
2021/10/26 08:23:23;;;;;;;18.90;11.33;;;11.60;99.90;;;;;;5076480;28;20467;-65
2021/10/26 08:25:56;;;;;;;15.30;11.10;;;11.70;99.90;;;;;;5076498;28;20488;-65
2021/10/26 08:28:26;;;;;;;18.43;10.93;;;11.70;99.90;;;;;;5076410;28;20465;-64
2021/10/26 08:31:01;;;;;;;13.83;10.43;;;11.80;99.90;;;;;;5075054;28;20466;-64
2021/10/26 08:33:40;;;;;;;12.10;9.17;;;11.90;82.10;;;;;;5076481;28;20461;-64
2021/10/26 08:36:07;;;;;;;12.63;10.03;;;12.00;1.00;;;;;;5076712;28;20488;-65
2021/10/26 08:38:37;;;;;;;10.27;9.03;;;12.10;99.90;;;;;;5075997;28;20465;-64
2021/10/26 08:41:07;;;;;;;12.67;9.27;;;12.10;1.00;;;;;;5076429;28;20764;-64
2021/10/26 08:43:37;;;;;;;11.80;9.53;;;12.10;99.90;;;;;;5076584;28;20461;-64
2021/10/26 08:46:16;;;;;;;11.27;8.67;;;12.10;99.90;;;;;;5076712;28;20489;-64
2021/10/26 08:48:45;;;;;;;11.97;8.77;;;11.90;99.90;;;;;;5068307;28;20447;-64
2021/10/26 08:51:17;;;;;;;13.27;8.97;;;11.90;1.00;;;;;;5063288;28;20919;-64
2021/10/26 08:53:54;;;;;;;12.00;8.70;;;11.90;99.90;;;;;;5066800;28;20523;-64
2021/10/26 08:56:25;;;;;;;11.30;8.33;;;12.00;1.00;;;;;;5068558;28;20484;-64
2021/10/26 08:58:56;;;;;;;11.50;8.00;;;12.00;1.00;;;;;;5069780;28;20897;-64
2021/10/26 09:01:25;;;;;;;11.23;8.90;;;12.00;99.90;;;;;;5057838;28;20461;-64
2021/10/26 09:04:13;;;;;;;12.50;8.40;;;12.10;99.90;;;;;;5068071;28;20551;-64
2021/10/26 09:06:48;;;;;;;13.33;8.20;;;12.00;99.90;;;;;;5076087;28;20950;-64
2021/10/26 09:09:23;;;;;;;10.03;6.97;;;12.00;18.70;;;;;;5072381;28;20461;-64
2021/10/26 09:18:07;;;;;;;9.43;7.07;;;12.20;99.90;;;;;;5017389;28;20498;-64
2021/10/26 09:20:34;;;;;;;16.67;9.10;;;12.30;99.90;;;;;;5055417;28;20457;-65
2021/10/26 09:23:04;;;;;;;13.30;7.67;;;12.30;1.00;;;;;;5079648;28;20487;-65
2021/10/26 09:25:38;;;;;;;17.20;7.87;;;12.30;52.30;;;;;;5077775;28;20489;-65
2021/10/26 09:28:16;;;;;;;15.10;7.57;;;12.50;1.00;;;;;;5062992;28;20496;-65
2021/10/26 09:31:03;;;;;;;12.53;7.47;;;12.50;99.90;;;;;;5069414;28;20548;-65
2021/10/26 09:33:37;;;;;;;8.00;7.20;;;12.40;99.90;;;;;;5066487;28;20461;-65
2021/10/26 09:36:24;;;;;;;13.00;7.97;;;12.40;99.90;;;;;;5064723;28;20515;-64
2021/10/26 09:39:10;;;;;;;9.80;7.27;;;12.40;99.90;;;;;;5066405;28;20470;-65
2021/10/26 09:41:41;;;;;;;11.40;8.20;;;12.50;81.30;;;;;;5069059;28;20511;-64
2021/10/26 09:44:16;;;;;;;8.47;6.50;;;12.70;59.40;;;;;;5069084;28;20450;-64
2021/10/26 09:46:52;;;;;;;13.63;6.27;;;12.90;39.10;;;;;;5070975;28;20496;-64
2021/10/26 09:49:25;;;;;;;10.60;6.40;;;13.10;13.00;;;;;;5068300;28;20805;-64
2021/10/26 09:51:53;;;;;;;11.13;6.40;;;13.00;1.00;;;;;;5066428;28;20561;-63
2021/10/26 09:54:26;;;;;;;9.27;6.60;;;13.10;1.00;;;;;;5068017;28;20445;-64
2021/10/26 09:57:18;;;;;;;14.50;7.00;;;13.10;1.00;;;;;;5067196;28;20687;-63
2021/10/26 09:59:52;;;;;;;13.37;5.27;;;13.10;1.00;;;;;;5061315;28;20519;-64
2021/10/26 10:02:22;;;;;;;7.63;4.73;;;13.00;1.00;;;;;;5062829;28;20489;-63
2021/10/26 10:04:51;;;;;;;8.00;4.87;;;13.00;1.00;;;;;;5047598;28;20482;-63
2021/10/26 10:07:32;;;;;;;6.67;4.80;;;13.10;1.00;;;;;;5046255;28;20467;-63
2021/10/26 10:10:09;;;;;;;11.33;4.77;;;13.20;1.00;;;;;;5052886;28;20516;-63
2021/10/26 10:12:37;;;;;;;7.47;4.60;;;13.20;1.00;;;;;;5055526;28;20877;-63
2021/10/26 10:15:20;;;;;;;;;;;;;;;;;;;;;
2021/10/26 10:17:53;;;;;;;13.13;6.50;;;13.00;1.00;;;;;;5054421;28;20760;-63
2021/10/26 10:20:53;;;;;;;10.73;5.90;;;12.90;1.00;;;;;;5052809;28;20459;-63
2021/10/26 10:23:27;;;;;;;11.30;7.70;;;13.00;1.00;;;;;;5043691;28;20454;-63
2021/10/26 10:26:00;;;;;;;12.27;9.10;;;13.00;1.00;;;;;;5043838;28;20564;-63
2021/10/26 10:28:33;;;;;;;11.20;9.70;;;13.10;1.00;;;;;;5048771;28;20469;-63
2021/10/26 10:31:08;;;;;;;11.70;9.97;;;13.00;1.00;;;;;;5048702;28;21132;-62
2021/10/26 10:33:36;;;;;;;11.03;9.17;;;12.90;1.00;;;;;;5049205;28;20561;-63
2021/10/26 10:36:07;;;;;;;16.43;10.80;;;12.90;1.00;;;;;;5047261;28;20466;-63
2021/10/26 10:38:41;;;;;;;14.97;10.13;;;12.90;1.00;;;;;;5047552;28;20496;-63
2021/10/26 10:41:30;;;;;;;14.13;8.60;;;13.20;1.00;;;;;;5057632;28;20887;-63
2021/10/26 10:43:58;;;;;;;12.57;8.20;;;13.30;1.00;;;;;;5048442;28;20442;-62
2021/10/26 10:46:40;;;;;;;10.80;8.37;;;13.40;1.00;;;;;;5052928;28;20932;-62
2021/10/26 10:49:44;;;;;;;9.23;8.33;;;13.40;1.00;;;;;;5047449;28;20474;-62
2021/10/26 10:52:18;;;;;;;14.60;8.20;;;13.40;1.00;;;;;;5047724;28;20543;-62
2021/10/26 10:55:01;;;;;;;8.97;7.70;;;13.50;1.00;;;;;;5057284;28;20535;-62
2021/10/26 10:57:46;;;;;;;12.40;9.37;;;13.60;1.00;;;;;;5058238;28;20718;-62
2021/10/26 11:00:26;;;;;;;10.70;7.27;;;13.90;1.00;;;;;;5055904;28;20462;-62
2021/10/26 11:02:57;;;;;;;16.13;8.67;;;14.40;1.00;;;;;;5048785;28;20489;-63
2021/10/26 11:05:43;;;;;;;10.60;7.67;;;14.50;1.00;;;;;;5077141;28;20523;-62
2021/10/26 11:08:13;;;;;;;13.30;8.47;;;15.00;1.00;;;;;;5077458;28;20476;-62
2021/10/26 11:10:59;;;;;;;9.30;6.73;;;15.20;1.00;;;;;;5067918;28;20469;-61
2021/10/26 11:13:29;;;;;;;16.23;7.30;;;15.20;1.00;;;;;;5077461;28;20462;-62
2021/10/26 11:15:59;;;;;;;10.10;6.80;;;15.40;1.00;;;;;;5073699;28;20464;-61
2021/10/26 11:18:44;;;;;;;8.63;7.43;;;15.40;1.00;;;;;;5077686;28;20462;-60
2021/10/26 11:21:37;;;;;;;10.33;5.83;;;15.10;1.00;;;;;;5074793;28;20892;-60
2021/10/26 11:24:14;;;;;;;8.63;6.77;;;14.80;1.00;;;;;;5077387;28;20547;-60
2021/10/26 11:26:44;;;;;;;6.90;5.83;;;14.60;1.00;;;;;;5075581;28;20913;-60
2021/10/26 11:29:13;;;;;;;10.37;7.23;;;14.30;1.00;;;;;;5077213;28;20921;-60
2021/10/26 11:31:50;;;;;;;14.80;7.60;;;14.10;1.00;;;;;;5077207;28;20803;-60
2021/10/26 11:34:20;;;;;;;10.90;7.00;;;14.10;1.00;;;;;;5076965;28;20885;-60
2021/10/26 11:36:59;;;;;;;11.30;6.30;;;14.00;1.00;;;;;;5076911;28;20439;-60
2021/10/26 11:39:28;;;;;;;10.30;6.87;;;14.20;1.00;;;;;;5076413;28;20740;-58
2021/10/26 11:41:59;;;;;;;10.17;7.17;;;14.20;1.00;;;;;;5069597;28;20795;-60
2021/10/26 11:44:30;;;;;;;10.10;6.00;;;14.50;1.00;;;;;;5064085;28;20472;-60
2021/10/26 11:47:01;;;;;;;7.20;5.50;;;14.70;1.00;;;;;;5076913;28;20493;-59
2021/10/26 11:49:31;;;;;;;10.03;5.30;;;15.10;1.00;;;;;;5076751;28;20457;-60
2021/10/26 11:52:02;;;;;;;6.33;4.60;;;15.30;1.00;;;;;;5076829;28;20552;-60
2021/10/26 11:54:50;;;;;;;10.50;4.80;;;15.30;1.00;;;;;;5076520;28;20767;-59
2021/10/26 11:57:22;;;;;;;9.67;4.83;;;15.60;1.00;;;;;;5076778;28;20461;-60
2021/10/26 12:00:02;;;;;;;7.97;4.40;;;15.40;1.00;;;;;;5076574;28;20800;-59
2021/10/26 12:02:41;;;;;;;8.90;5.20;;;15.10;1.00;;;;;;5087036;28;20476;-59
2021/10/26 12:05:25;;;;;;;6.67;4.53;;;14.70;1.00;;;;;;5064959;28;20477;-59
2021/10/26 12:07:58;;;;;;;8.10;4.10;;;14.70;1.00;;;;;;5056948;28;20454;-59
2021/10/26 12:10:26;;;;;;;14.23;4.83;;;14.60;1.00;;;;;;5056863;28;20485;-57
2021/10/26 12:12:57;;;;;;;8.60;4.43;;;14.70;1.00;;;;;;5056226;28;20465;-57
2021/10/26 12:15:27;;;;;;;4.87;4.10;;;15.20;1.00;;;;;;5061973;28;20500;-59
2021/10/26 12:17:59;;;;;;;11.20;5.00;;;15.80;1.00;;;;;;5065053;28;20513;-59
2021/10/26 12:20:32;;;;;;;6.47;4.23;;;16.10;1.00;;;;;;5062172;28;20462;-56
2021/10/26 12:23:05;;;;;;;5.37;4.20;;;16.40;1.00;;;;;;5065404;28;20902;-59
2021/10/26 12:25:47;;;;;;;5.90;4.07;;;16.40;1.00;;;;;;5056775;28;20461;-57
2021/10/26 12:28:15;;;;;;;7.17;4.57;;;16.20;1.00;;;;;;5064280;28;20532;-58
2021/10/26 12:30:46;;;;;;;5.63;4.20;;;16.00;1.00;;;;;;5062675;28;20487;-57
2021/10/26 12:33:22;;;;;;;9.00;4.63;;;15.80;1.00;;;;;;5070366;28;20463;-58
2021/10/26 12:36:13;;;;;;;6.13;3.47;;;15.40;1.00;;;;;;5064065;28;20461;-57
2021/10/26 12:38:43;;;;;;;5.70;3.73;;;15.50;1.00;;;;;;5063994;28;20485;-58
2021/10/26 12:41:23;;;;;;;5.13;4.00;;;15.30;1.00;;;;;;5065860;28;20892;-58
2021/10/26 12:44:06;;;;;;;6.10;4.10;;;15.20;1.00;;;;;;5063481;28;20462;-58
2021/10/26 12:46:39;;;;;;;6.43;4.17;;;15.30;1.00;;;;;;5070227;28;20488;-58
2021/10/26 12:49:11;;;;;;;6.50;4.57;;;15.70;1.00;;;;;;5065469;28;20462;-58
2021/10/26 12:51:44;;;;;;;5.70;3.97;;;16.40;1.00;;;;;;5067606;28;20465;-58
2021/10/26 12:54:17;;;;;;;7.73;4.17;;;16.80;1.00;;;;;;5067939;28;20454;-56
2021/10/26 12:56:51;;;;;;;7.53;4.10;;;16.90;1.00;;;;;;5066347;28;20462;-58
2021/10/26 12:59:18;;;;;;;9.00;4.60;;;16.70;1.00;;;;;;5065251;28;20473;-57
2021/10/26 13:01:49;;;;;;;5.37;4.40;;;16.60;1.00;;;;;;5065799;28;20496;-54
2021/10/26 13:04:26;;;;;;;6.33;4.47;;;16.20;1.00;;;;;;5067980;28;20509;-53